sensor_id;sensor_type;location;lat;lon;timestamp;P1;durP1;ratioP1;P2;durP2;ratioP2
29838;SDS011;18669;53.356;-1.464;2022-07-18T06:27:26;6.20;;;3.80;;
29838;SDS011;18669;53.356;-1.464;2022-07-18T06:29:52;3.80;;;3.20;;
29838;SDS011;18669;53.356;-1.464;2022-07-18T06:32:18;7.90;;;2.92;;
29838;SDS011;18669;53.356;-1.464;2022-07-18T06:34:44;4.05;;;2.83;;
29838;SDS011;18669;53.356;-1.464;2022-07-18T06:37:11;8.13;;;2.60;;
29838;SDS011;18669;53.356;-1.464;2022-07-18T06:39:37;5.40;;;3.15;;
29838;SDS011;18669;53.356;-1.464;2022-07-18T06:42:04;4.25;;;2.90;;
29838;SDS011;18669;53.356;-1.464;2022-07-18T06:44:30;4.43;;;2.97;;
29838;SDS011;18669;53.356;-1.464;2022-07-18T06:46:56;4.10;;;2.90;;
29838;SDS011;18669;53.356;-1.464;2022-07-18T06:49:25;3.75;;;3.00;;
29838;SDS011;18669;53.356;-1.464;2022-07-18T06:51:52;5.30;;;2.72;;
29838;SDS011;18669;53.356;-1.464;2022-07-18T06:54:18;4.10;;;3.05;;
29838;SDS011;18669;53.356;-1.464;2022-07-18T06:56:46;3.45;;;2.60;;
29838;SDS011;18669;53.356;-1.464;2022-07-18T06:59:12;3.10;;;2.80;;
29838;SDS011;18669;53.356;-1.464;2022-07-18T07:01:38;3.75;;;2.65;;
29838;SDS011;18669;53.356;-1.464;2022-07-18T07:04:04;5.75;;;3.22;;
29838;SDS011;18669;53.356;-1.464;2022-07-18T07:06:30;5.97;;;2.63;;
29838;SDS011;18669;53.356;-1.464;2022-07-18T07:08:56;3.85;;;2.88;;
29838;SDS011;18669;53.356;-1.464;2022-07-18T07:11:22;3.63;;;2.70;;
29838;SDS011;18669;53.356;-1.464;2022-07-18T07:13:48;5.22;;;3.00;;
29838;SDS011;18669;53.356;-1.464;2022-07-18T07:16:15;4.65;;;3.00;;
29838;SDS011;18669;53.356;-1.464;2022-07-18T07:18:41;3.63;;;2.50;;
29838;SDS011;18669;53.356;-1.464;2022-07-18T07:21:07;6.75;;;2.90;;
29838;SDS011;18669;53.356;-1.464;2022-07-18T07:23:34;4.20;;;2.80;;
29838;SDS011;18669;53.356;-1.464;2022-07-18T07:26:01;3.90;;;2.72;;
29838;SDS011;18669;53.356;-1.464;2022-07-18T07:28:27;3.35;;;2.67;;
29838;SDS011;18669;53.356;-1.464;2022-07-18T07:30:53;3.80;;;3.10;;
29838;SDS011;18669;53.356;-1.464;2022-07-18T07:33:19;3.60;;;2.50;;
29838;SDS011;18669;53.356;-1.464;2022-07-18T07:35:45;3.83;;;2.83;;
29838;SDS011;18669;53.356;-1.464;2022-07-18T07:38:12;3.53;;;2.55;;
29838;SDS011;18669;53.356;-1.464;2022-07-18T07:40:43;6.70;;;3.03;;
29838;SDS011;18669;53.356;-1.464;2022-07-18T07:43:11;6.70;;;3.10;;
29838;SDS011;18669;53.356;-1.464;2022-07-18T07:45:38;8.13;;;3.25;;
29838;SDS011;18669;53.356;-1.464;2022-07-18T07:48:05;6.75;;;2.83;;
29838;SDS011;18669;53.356;-1.464;2022-07-18T07:50:32;7.85;;;2.70;;
29838;SDS011;18669;53.356;-1.464;2022-07-18T07:53:01;5.95;;;2.88;;
29838;SDS011;18669;53.356;-1.464;2022-07-18T07:55:28;5.25;;;2.95;;
29838;SDS011;18669;53.356;-1.464;2022-07-18T07:57:55;9.27;;;3.05;;
29838;SDS011;18669;53.356;-1.464;2022-07-18T08:00:22;3.72;;;2.80;;
29838;SDS011;18669;53.356;-1.464;2022-07-18T08:02:57;5.38;;;2.95;;
29838;SDS011;18669;53.356;-1.464;2022-07-18T08:05:28;5.03;;;2.70;;
29838;SDS011;18669;53.356;-1.464;2022-07-18T08:07:56;4.78;;;2.35;;
29838;SDS011;18669;53.356;-1.464;2022-07-18T08:10:23;4.55;;;2.83;;
29838;SDS011;18669;53.356;-1.464;2022-07-18T08:12:50;7.00;;;3.20;;
29838;SDS011;18669;53.356;-1.464;2022-07-18T08:15:17;4.43;;;2.85;;
29838;SDS011;18669;53.356;-1.464;2022-07-18T08:17:43;3.58;;;2.90;;
29838;SDS011;18669;53.356;-1.464;2022-07-18T08:20:10;10.02;;;2.92;;
29838;SDS011;18669;53.356;-1.464;2022-07-18T08:22:58;5.70;;;2.85;;
29838;SDS011;18669;53.356;-1.464;2022-07-18T08:25:25;4.35;;;2.72;;
29838;SDS011;18669;53.356;-1.464;2022-07-18T08:27:53;5.72;;;2.70;;
29838;SDS011;18669;53.356;-1.464;2022-07-18T08:30:19;4.85;;;2.65;;
29838;SDS011;18669;53.356;-1.464;2022-07-18T08:32:47;8.27;;;2.40;;
29838;SDS011;18669;53.356;-1.464;2022-07-18T08:35:14;10.77;;;2.60;;
29838;SDS011;18669;53.356;-1.464;2022-07-18T08:37:40;8.82;;;2.20;;
29838;SDS011;18669;53.356;-1.464;2022-07-18T08:40:07;5.22;;;2.80;;
29838;SDS011;18669;53.356;-1.464;2022-07-18T08:42:33;5.05;;;2.42;;
29838;SDS011;18669;53.356;-1.464;2022-07-18T08:45:01;8.55;;;2.45;;
29838;SDS011;18669;53.356;-1.464;2022-07-18T08:47:29;7.50;;;2.53;;
29838;SDS011;18669;53.356;-1.464;2022-07-18T08:49:55;4.90;;;2.25;;
29838;SDS011;18669;53.356;-1.464;2022-07-18T08:52:22;5.95;;;2.50;;
29838;SDS011;18669;53.356;-1.464;2022-07-18T08:54:48;6.78;;;2.60;;
29838;SDS011;18669;53.356;-1.464;2022-07-18T08:57:15;4.05;;;2.30;;
29838;SDS011;18669;53.356;-1.464;2022-07-18T08:59:42;6.13;;;2.40;;
29838;SDS011;18669;53.356;-1.464;2022-07-18T09:02:09;10.98;;;2.70;;
29838;SDS011;18669;53.356;-1.464;2022-07-18T09:07:04;12.43;;;2.67;;
29838;SDS011;18669;53.356;-1.464;2022-07-18T09:09:31;4.55;;;2.38;;
29838;SDS011;18669;53.356;-1.464;2022-07-18T09:12:08;6.20;;;2.25;;
29838;SDS011;18669;53.356;-1.464;2022-07-18T09:14:39;5.80;;;3.85;;
29838;SDS011;18669;53.356;-1.464;2022-07-18T09:19:43;23.13;;;3.13;;
29838;SDS011;18669;53.356;-1.464;2022-07-18T09:22:43;8.73;;;2.50;;
29838;SDS011;18669;53.356;-1.464;2022-07-18T09:25:16;3.28;;;2.10;;
29838;SDS011;18669;53.356;-1.464;2022-07-18T09:27:49;3.47;;;2.05;;
29838;SDS011;18669;53.356;-1.464;2022-07-18T09:30:27;5.65;;;2.00;;
29838;SDS011;18669;53.356;-1.464;2022-07-18T09:33:08;5.47;;;2.17;;
29838;SDS011;18669;53.356;-1.464;2022-07-18T09:38:04;5.43;;;2.10;;
29838;SDS011;18669;53.356;-1.464;2022-07-18T09:40:35;4.00;;;2.38;;
29838;SDS011;18669;53.356;-1.464;2022-07-18T09:43:04;7.47;;;2.50;;
29838;SDS011;18669;53.356;-1.464;2022-07-18T09:48:05;5.15;;;2.50;;
29838;SDS011;18669;53.356;-1.464;2022-07-18T09:50:52;4.68;;;2.13;;
29838;SDS011;18669;53.356;-1.464;2022-07-18T09:53:24;5.78;;;1.98;;
29838;SDS011;18669;53.356;-1.464;2022-07-18T09:55:53;4.18;;;1.90;;
29838;SDS011;18669;53.356;-1.464;2022-07-18T09:58:21;2.85;;;2.00;;
29838;SDS011;18669;53.356;-1.464;2022-07-18T10:00:49;6.60;;;1.92;;
29838;SDS011;18669;53.356;-1.464;2022-07-18T10:03:16;2.67;;;1.67;;
29838;SDS011;18669;53.356;-1.464;2022-07-18T10:05:44;1.95;;;1.80;;
29838;SDS011;18669;53.356;-1.464;2022-07-18T10:08:12;3.42;;;1.88;;
29838;SDS011;18669;53.356;-1.464;2022-07-18T10:10:41;2.15;;;1.90;;
29838;SDS011;18669;53.356;-1.464;2022-07-18T10:13:09;4.43;;;1.70;;
29838;SDS011;18669;53.356;-1.464;2022-07-18T10:15:36;2.47;;;1.90;;
29838;SDS011;18669;53.356;-1.464;2022-07-18T10:18:05;2.20;;;1.73;;
29838;SDS011;18669;53.356;-1.464;2022-07-18T10:20:40;12.10;;;2.20;;
29838;SDS011;18669;53.356;-1.464;2022-07-18T10:34:29;6.18;;;3.00;;
29838;SDS011;18669;53.356;-1.464;2022-07-18T10:39:35;3.55;;;1.88;;
29838;SDS011;18669;53.356;-1.464;2022-07-18T10:44:44;2.00;;;1.75;;
29838;SDS011;18669;53.356;-1.464;2022-07-18T10:47:11;1.88;;;1.58;;
29838;SDS011;18669;53.356;-1.464;2022-07-18T10:57:29;2.42;;;1.80;;
29838;SDS011;18669;53.356;-1.464;2022-07-18T11:02:43;3.70;;;1.65;;
29838;SDS011;18669;53.356;-1.464;2022-07-18T11:05:31;2.00;;;1.80;;
29838;SDS011;18669;53.356;-1.464;2022-07-18T11:16:03;2.28;;;1.50;;
29838;SDS011;18669;53.356;-1.464;2022-07-18T11:23:45;1.42;;;1.33;;
29838;SDS011;18669;53.356;-1.464;2022-07-18T11:26:16;1.90;;;1.80;;
29838;SDS011;18669;53.356;-1.464;2022-07-18T11:28:43;3.22;;;1.20;;
29838;SDS011;18669;53.356;-1.464;2022-07-18T11:31:12;4.00;;;1.30;;
29838;SDS011;18669;53.356;-1.464;2022-07-18T11:33:47;1.30;;;1.20;;
29838;SDS011;18669;53.356;-1.464;2022-07-18T11:36:20;4.22;;;1.50;;
29838;SDS011;18669;53.356;-1.464;2022-07-18T11:41:20;1.42;;;1.33;;
29838;SDS011;18669;53.356;-1.464;2022-07-18T11:43:48;3.20;;;1.40;;
29838;SDS011;18669;53.356;-1.464;2022-07-18T11:46:16;1.80;;;1.40;;
29838;SDS011;18669;53.356;-1.464;2022-07-18T11:48:44;1.45;;;1.25;;
29838;SDS011;18669;53.356;-1.464;2022-07-18T11:51:16;2.88;;;1.30;;
29838;SDS011;18669;53.356;-1.464;2022-07-18T11:53:48;1.10;;;1.00;;
29838;SDS011;18669;53.356;-1.464;2022-07-18T11:56:17;1.35;;;1.00;;
29838;SDS011;18669;53.356;-1.464;2022-07-18T11:58:45;2.05;;;1.10;;
29838;SDS011;18669;53.356;-1.464;2022-07-18T12:01:12;1.38;;;1.20;;
29838;SDS011;18669;53.356;-1.464;2022-07-18T12:03:43;1.30;;;1.05;;
29838;SDS011;18669;53.356;-1.464;2022-07-18T12:08:41;1.23;;;1.08;;
29838;SDS011;18669;53.356;-1.464;2022-07-18T12:13:47;2.17;;;1.17;;
29838;SDS011;18669;53.356;-1.464;2022-07-18T12:19:11;1.20;;;1.10;;
29838;SDS011;18669;53.356;-1.464;2022-07-18T12:21:43;2.75;;;1.20;;
29838;SDS011;18669;53.356;-1.464;2022-07-18T12:24:19;0.90;;;0.77;;
29838;SDS011;18669;53.356;-1.464;2022-07-18T12:26:45;0.90;;;0.88;;
29838;SDS011;18669;53.356;-1.464;2022-07-18T12:29:12;0.90;;;0.90;;
29838;SDS011;18669;53.356;-1.464;2022-07-18T12:31:44;1.85;;;1.00;;
29838;SDS011;18669;53.356;-1.464;2022-07-18T12:34:15;5.32;;;1.05;;
29838;SDS011;18669;53.356;-1.464;2022-07-18T12:36:52;3.33;;;1.23;;
29838;SDS011;18669;53.356;-1.464;2022-07-18T12:39:31;1.42;;;0.90;;
29838;SDS011;18669;53.356;-1.464;2022-07-18T12:41:59;1.25;;;1.10;;
29838;SDS011;18669;53.356;-1.464;2022-07-18T12:44:29;6.15;;;1.38;;
29838;SDS011;18669;53.356;-1.464;2022-07-18T12:46:55;3.55;;;1.10;;
29838;SDS011;18669;53.356;-1.464;2022-07-18T12:49:21;8.43;;;1.45;;
29838;SDS011;18669;53.356;-1.464;2022-07-18T12:51:48;1.10;;;1.00;;
29838;SDS011;18669;53.356;-1.464;2022-07-18T12:54:16;1.27;;;1.02;;
29838;SDS011;18669;53.356;-1.464;2022-07-18T12:56:43;3.65;;;1.70;;
29838;SDS011;18669;53.356;-1.464;2022-07-18T12:59:09;2.92;;;1.05;;
29838;SDS011;18669;53.356;-1.464;2022-07-18T13:01:36;4.55;;;1.40;;
29838;SDS011;18669;53.356;-1.464;2022-07-18T13:04:03;4.65;;;1.30;;
29838;SDS011;18669;53.356;-1.464;2022-07-18T13:06:29;2.80;;;1.20;;
29838;SDS011;18669;53.356;-1.464;2022-07-18T13:08:55;4.05;;;1.30;;
29838;SDS011;18669;53.356;-1.464;2022-07-18T13:11:21;3.47;;;1.10;;
29838;SDS011;18669;53.356;-1.464;2022-07-18T13:13:47;4.80;;;1.40;;
29838;SDS011;18669;53.356;-1.464;2022-07-18T13:16:13;4.13;;;1.30;;
29838;SDS011;18669;53.356;-1.464;2022-07-18T13:18:39;1.83;;;1.38;;
29838;SDS011;18669;53.356;-1.464;2022-07-18T13:21:06;3.38;;;1.50;;
29838;SDS011;18669;53.356;-1.464;2022-07-18T13:23:32;1.40;;;1.30;;
29838;SDS011;18669;53.356;-1.464;2022-07-18T13:25:58;1.73;;;1.40;;
29838;SDS011;18669;53.356;-1.464;2022-07-18T13:28:24;4.05;;;1.42;;
29838;SDS011;18669;53.356;-1.464;2022-07-18T13:30:53;2.97;;;1.30;;
29838;SDS011;18669;53.356;-1.464;2022-07-18T13:33:19;2.15;;;1.40;;
29838;SDS011;18669;53.356;-1.464;2022-07-18T13:35:46;1.67;;;1.13;;
29838;SDS011;18669;53.356;-1.464;2022-07-18T13:38:12;15.07;;;2.40;;
29838;SDS011;18669;53.356;-1.464;2022-07-18T13:40:39;3.70;;;1.27;;
29838;SDS011;18669;53.356;-1.464;2022-07-18T13:43:05;2.40;;;1.30;;
29838;SDS011;18669;53.356;-1.464;2022-07-18T13:45:31;3.72;;;1.17;;
29838;SDS011;18669;53.356;-1.464;2022-07-18T13:47:57;2.97;;;1.10;;
29838;SDS011;18669;53.356;-1.464;2022-07-18T13:50:23;3.22;;;1.02;;
29838;SDS011;18669;53.356;-1.464;2022-07-18T13:52:49;6.63;;;1.30;;
29838;SDS011;18669;53.356;-1.464;2022-07-18T13:55:16;1.30;;;1.20;;
29838;SDS011;18669;53.356;-1.464;2022-07-18T13:57:42;5.18;;;1.30;;
29838;SDS011;18669;53.356;-1.464;2022-07-18T14:00:09;9.32;;;1.30;;
29838;SDS011;18669;53.356;-1.464;2022-07-18T14:02:36;16.60;;;1.58;;
29838;SDS011;18669;53.356;-1.464;2022-07-18T14:05:02;1.10;;;1.00;;
29838;SDS011;18669;53.356;-1.464;2022-07-18T14:07:29;6.28;;;1.20;;
29838;SDS011;18669;53.356;-1.464;2022-07-18T14:09:55;7.10;;;1.40;;
29838;SDS011;18669;53.356;-1.464;2022-07-18T14:12:22;4.70;;;1.40;;
29838;SDS011;18669;53.356;-1.464;2022-07-18T14:14:48;2.35;;;1.00;;
29838;SDS011;18669;53.356;-1.464;2022-07-18T14:17:14;2.25;;;1.50;;
29838;SDS011;18669;53.356;-1.464;2022-07-18T14:19:41;2.72;;;1.10;;
29838;SDS011;18669;53.356;-1.464;2022-07-18T14:22:07;3.63;;;1.15;;
29838;SDS011;18669;53.356;-1.464;2022-07-18T14:24:37;4.38;;;1.13;;
29838;SDS011;18669;53.356;-1.464;2022-07-18T14:27:03;3.90;;;1.00;;
29838;SDS011;18669;53.356;-1.464;2022-07-18T14:29:30;1.38;;;1.20;;
29838;SDS011;18669;53.356;-1.464;2022-07-18T14:31:56;2.88;;;1.15;;
29838;SDS011;18669;53.356;-1.464;2022-07-18T14:34:22;2.20;;;1.10;;
29838;SDS011;18669;53.356;-1.464;2022-07-18T14:36:48;3.60;;;1.20;;
29838;SDS011;18669;53.356;-1.464;2022-07-18T14:39:14;6.88;;;2.05;;
29838;SDS011;18669;53.356;-1.464;2022-07-18T14:41:40;4.32;;;1.10;;
29838;SDS011;18669;53.356;-1.464;2022-07-18T14:44:06;1.77;;;1.10;;
29838;SDS011;18669;53.356;-1.464;2022-07-18T14:46:32;4.30;;;1.35;;
29838;SDS011;18669;53.356;-1.464;2022-07-18T14:48:58;4.10;;;1.30;;
29838;SDS011;18669;53.356;-1.464;2022-07-18T14:51:24;3.90;;;1.13;;
29838;SDS011;18669;53.356;-1.464;2022-07-18T14:53:50;3.03;;;1.30;;
29838;SDS011;18669;53.356;-1.464;2022-07-18T14:56:16;2.10;;;1.17;;
29838;SDS011;18669;53.356;-1.464;2022-07-18T14:58:42;3.63;;;0.90;;
29838;SDS011;18669;53.356;-1.464;2022-07-18T15:01:09;5.38;;;1.48;;
29838;SDS011;18669;53.356;-1.464;2022-07-18T15:03:35;5.50;;;1.20;;
29838;SDS011;18669;53.356;-1.464;2022-07-18T15:06:01;5.60;;;1.30;;
29838;SDS011;18669;53.356;-1.464;2022-07-18T15:08:28;4.82;;;1.48;;
29838;SDS011;18669;53.356;-1.464;2022-07-18T15:10:54;6.65;;;1.42;;
29838;SDS011;18669;53.356;-1.464;2022-07-18T15:13:20;3.15;;;1.40;;
29838;SDS011;18669;53.356;-1.464;2022-07-18T15:15:47;4.65;;;1.23;;
29838;SDS011;18669;53.356;-1.464;2022-07-18T15:18:14;2.50;;;1.10;;
29838;SDS011;18669;53.356;-1.464;2022-07-18T15:20:40;3.17;;;1.25;;
29838;SDS011;18669;53.356;-1.464;2022-07-18T15:23:06;2.30;;;1.48;;
29838;SDS011;18669;53.356;-1.464;2022-07-18T15:25:32;7.60;;;1.52;;
29838;SDS011;18669;53.356;-1.464;2022-07-18T15:27:58;2.45;;;1.15;;
29838;SDS011;18669;53.356;-1.464;2022-07-18T15:30:24;5.20;;;1.38;;
29838;SDS011;18669;53.356;-1.464;2022-07-18T15:32:50;2.88;;;1.60;;
29838;SDS011;18669;53.356;-1.464;2022-07-18T15:35:17;6.88;;;1.75;;
29838;SDS011;18669;53.356;-1.464;2022-07-18T15:37:43;2.50;;;1.70;;
29838;SDS011;18669;53.356;-1.464;2022-07-18T15:40:09;4.35;;;1.73;;
29838;SDS011;18669;53.356;-1.464;2022-07-18T15:42:36;6.57;;;1.70;;
29838;SDS011;18669;53.356;-1.464;2022-07-18T15:45:02;3.40;;;1.52;;
29838;SDS011;18669;53.356;-1.464;2022-07-18T15:47:28;3.17;;;1.38;;
29838;SDS011;18669;53.356;-1.464;2022-07-18T15:49:54;3.85;;;1.40;;
29838;SDS011;18669;53.356;-1.464;2022-07-18T15:52:20;3.78;;;1.30;;
29838;SDS011;18669;53.356;-1.464;2022-07-18T15:54:46;3.10;;;1.40;;
29838;SDS011;18669;53.356;-1.464;2022-07-18T15:57:14;3.20;;;1.48;;
29838;SDS011;18669;53.356;-1.464;2022-07-18T15:59:40;6.07;;;1.42;;
29838;SDS011;18669;53.356;-1.464;2022-07-18T16:02:07;1.45;;;1.33;;
29838;SDS011;18669;53.356;-1.464;2022-07-18T16:04:33;6.60;;;1.52;;
29838;SDS011;18669;53.356;-1.464;2022-07-18T16:07:00;3.67;;;1.38;;
29838;SDS011;18669;53.356;-1.464;2022-07-18T16:09:26;15.77;;;2.42;;
29838;SDS011;18669;53.356;-1.464;2022-07-18T16:11:52;3.45;;;1.42;;
29838;SDS011;18669;53.356;-1.464;2022-07-18T16:14:19;5.47;;;1.23;;
29838;SDS011;18669;53.356;-1.464;2022-07-18T16:16:45;7.95;;;1.70;;
29838;SDS011;18669;53.356;-1.464;2022-07-18T16:19:11;4.45;;;1.50;;
29838;SDS011;18669;53.356;-1.464;2022-07-18T16:21:38;2.00;;;1.50;;
29838;SDS011;18669;53.356;-1.464;2022-07-18T16:24:04;5.03;;;2.22;;
29838;SDS011;18669;53.356;-1.464;2022-07-18T16:26:31;4.85;;;1.90;;
29838;SDS011;18669;53.356;-1.464;2022-07-18T16:28:57;6.70;;;1.50;;
29838;SDS011;18669;53.356;-1.464;2022-07-18T16:31:23;4.07;;;1.30;;
29838;SDS011;18669;53.356;-1.464;2022-07-18T16:33:49;3.15;;;1.38;;
29838;SDS011;18669;53.356;-1.464;2022-07-18T16:36:16;6.47;;;1.42;;
29838;SDS011;18669;53.356;-1.464;2022-07-18T16:38:42;6.13;;;2.05;;
29838;SDS011;18669;53.356;-1.464;2022-07-18T16:41:08;3.03;;;1.58;;
29838;SDS011;18669;53.356;-1.464;2022-07-18T16:43:35;12.90;;;1.70;;
29838;SDS011;18669;53.356;-1.464;2022-07-18T16:46:01;5.63;;;1.77;;
29838;SDS011;18669;53.356;-1.464;2022-07-18T16:48:27;1.75;;;1.58;;
29838;SDS011;18669;53.356;-1.464;2022-07-18T16:50:53;3.83;;;1.55;;
29838;SDS011;18669;53.356;-1.464;2022-07-18T16:53:20;4.13;;;2.42;;
29838;SDS011;18669;53.356;-1.464;2022-07-18T16:55:47;6.22;;;1.98;;
29838;SDS011;18669;53.356;-1.464;2022-07-18T16:58:13;5.28;;;1.75;;
29838;SDS011;18669;53.356;-1.464;2022-07-18T17:00:39;6.30;;;2.88;;
29838;SDS011;18669;53.356;-1.464;2022-07-18T17:03:06;4.13;;;1.90;;
29838;SDS011;18669;53.356;-1.464;2022-07-18T17:05:32;5.80;;;1.92;;
29838;SDS011;18669;53.356;-1.464;2022-07-18T17:07:59;4.32;;;1.50;;
29838;SDS011;18669;53.356;-1.464;2022-07-18T17:10:25;3.65;;;1.58;;
29838;SDS011;18669;53.356;-1.464;2022-07-18T17:12:52;4.50;;;1.70;;
29838;SDS011;18669;53.356;-1.464;2022-07-18T17:15:18;4.40;;;1.67;;
29838;SDS011;18669;53.356;-1.464;2022-07-18T17:17:45;8.48;;;2.00;;
29838;SDS011;18669;53.356;-1.464;2022-07-18T17:20:12;2.80;;;1.50;;
29838;SDS011;18669;53.356;-1.464;2022-07-18T17:22:40;8.68;;;2.10;;
29838;SDS011;18669;53.356;-1.464;2022-07-18T17:25:06;6.10;;;2.00;;
29838;SDS011;18669;53.356;-1.464;2022-07-18T17:27:33;6.40;;;1.98;;
29838;SDS011;18669;53.356;-1.464;2022-07-18T17:29:59;4.65;;;1.70;;
29838;SDS011;18669;53.356;-1.464;2022-07-18T17:32:26;4.60;;;1.92;;
29838;SDS011;18669;53.356;-1.464;2022-07-18T17:34:53;3.55;;;2.08;;
29838;SDS011;18669;53.356;-1.464;2022-07-18T17:37:19;3.30;;;1.73;;
29838;SDS011;18669;53.356;-1.464;2022-07-18T17:39:47;8.40;;;1.90;;
29838;SDS011;18669;53.356;-1.464;2022-07-18T17:42:16;10.73;;;2.00;;
29838;SDS011;18669;53.356;-1.464;2022-07-18T17:44:43;4.20;;;1.92;;
29838;SDS011;18669;53.356;-1.464;2022-07-18T17:47:10;8.52;;;1.80;;
29838;SDS011;18669;53.356;-1.464;2022-07-18T17:49:37;3.60;;;1.77;;
29838;SDS011;18669;53.356;-1.464;2022-07-18T17:52:03;3.45;;;1.58;;
29838;SDS011;18669;53.356;-1.464;2022-07-18T17:54:30;7.53;;;1.70;;
29838;SDS011;18669;53.356;-1.464;2022-07-18T17:56:56;5.97;;;1.40;;
29838;SDS011;18669;53.356;-1.464;2022-07-18T17:59:22;5.25;;;1.50;;
29838;SDS011;18669;53.356;-1.464;2022-07-18T18:01:48;2.80;;;1.33;;
29838;SDS011;18669;53.356;-1.464;2022-07-18T18:04:14;7.85;;;2.25;;
29838;SDS011;18669;53.356;-1.464;2022-07-18T18:06:40;3.05;;;1.70;;
29838;SDS011;18669;53.356;-1.464;2022-07-18T18:09:06;7.72;;;1.70;;
29838;SDS011;18669;53.356;-1.464;2022-07-18T18:11:33;4.72;;;1.90;;
29838;SDS011;18669;53.356;-1.464;2022-07-18T18:13:59;10.65;;;2.60;;
29838;SDS011;18669;53.356;-1.464;2022-07-18T18:16:27;4.15;;;1.75;;
29838;SDS011;18669;53.356;-1.464;2022-07-18T18:18:53;3.67;;;1.90;;
29838;SDS011;18669;53.356;-1.464;2022-07-18T18:21:19;3.53;;;1.73;;
29838;SDS011;18669;53.356;-1.464;2022-07-18T18:23:45;5.35;;;1.80;;
29838;SDS011;18669;53.356;-1.464;2022-07-18T18:26:12;3.20;;;1.70;;
29838;SDS011;18669;53.356;-1.464;2022-07-18T18:28:38;7.15;;;1.83;;
29838;SDS011;18669;53.356;-1.464;2022-07-18T18:31:04;2.92;;;1.92;;
29838;SDS011;18669;53.356;-1.464;2022-07-18T18:33:31;7.00;;;1.45;;
29838;SDS011;18669;53.356;-1.464;2022-07-18T18:35:57;4.55;;;2.00;;
29838;SDS011;18669;53.356;-1.464;2022-07-18T18:38:23;3.90;;;1.67;;
29838;SDS011;18669;53.356;-1.464;2022-07-18T18:40:49;4.30;;;2.17;;
29838;SDS011;18669;53.356;-1.464;2022-07-18T18:43:16;3.83;;;2.00;;
29838;SDS011;18669;53.356;-1.464;2022-07-18T18:45:43;4.57;;;1.80;;
29838;SDS011;18669;53.356;-1.464;2022-07-18T18:48:09;3.22;;;2.10;;
29838;SDS011;18669;53.356;-1.464;2022-07-18T18:50:35;6.22;;;1.98;;
29838;SDS011;18669;53.356;-1.464;2022-07-18T18:53:02;4.13;;;1.80;;
29838;SDS011;18669;53.356;-1.464;2022-07-18T18:55:28;6.55;;;2.22;;
29838;SDS011;18669;53.356;-1.464;2022-07-18T18:57:54;9.18;;;2.20;;
29838;SDS011;18669;53.356;-1.464;2022-07-18T19:00:20;3.15;;;1.45;;
29838;SDS011;18669;53.356;-1.464;2022-07-18T19:02:48;3.92;;;2.03;;
29838;SDS011;18669;53.356;-1.464;2022-07-18T19:05:16;6.03;;;2.03;;
29838;SDS011;18669;53.356;-1.464;2022-07-18T19:07:43;3.88;;;1.75;;
29838;SDS011;18669;53.356;-1.464;2022-07-18T19:10:10;6.00;;;2.13;;
29838;SDS011;18669;53.356;-1.464;2022-07-18T19:12:37;2.78;;;1.83;;
29838;SDS011;18669;53.356;-1.464;2022-07-18T19:15:04;3.50;;;1.85;;
29838;SDS011;18669;53.356;-1.464;2022-07-18T19:17:32;5.13;;;2.03;;
29838;SDS011;18669;53.356;-1.464;2022-07-18T19:19:58;9.10;;;2.08;;
29838;SDS011;18669;53.356;-1.464;2022-07-18T19:22:25;6.53;;;2.40;;
29838;SDS011;18669;53.356;-1.464;2022-07-18T19:24:51;6.88;;;1.90;;
29838;SDS011;18669;53.356;-1.464;2022-07-18T19:27:17;6.63;;;1.73;;
29838;SDS011;18669;53.356;-1.464;2022-07-18T19:29:43;7.68;;;2.05;;
29838;SDS011;18669;53.356;-1.464;2022-07-18T19:32:09;2.08;;;1.75;;
29838;SDS011;18669;53.356;-1.464;2022-07-18T19:34:35;4.97;;;2.13;;
29838;SDS011;18669;53.356;-1.464;2022-07-18T19:37:01;3.85;;;1.90;;
29838;SDS011;18669;53.356;-1.464;2022-07-18T19:39:27;2.90;;;1.88;;
29838;SDS011;18669;53.356;-1.464;2022-07-18T19:41:53;5.13;;;1.90;;
29838;SDS011;18669;53.356;-1.464;2022-07-18T19:44:22;3.92;;;1.88;;
29838;SDS011;18669;53.356;-1.464;2022-07-18T19:46:49;5.10;;;2.10;;
29838;SDS011;18669;53.356;-1.464;2022-07-18T19:49:15;5.72;;;1.92;;
29838;SDS011;18669;53.356;-1.464;2022-07-18T19:51:41;2.95;;;2.00;;
29838;SDS011;18669;53.356;-1.464;2022-07-18T19:54:07;4.90;;;1.90;;
29838;SDS011;18669;53.356;-1.464;2022-07-18T19:56:33;4.93;;;1.95;;
29838;SDS011;18669;53.356;-1.464;2022-07-18T19:59:02;7.80;;;1.88;;
29838;SDS011;18669;53.356;-1.464;2022-07-18T20:01:29;6.03;;;2.67;;
29838;SDS011;18669;53.356;-1.464;2022-07-18T20:03:55;10.38;;;2.40;;
29838;SDS011;18669;53.356;-1.464;2022-07-18T20:06:21;5.00;;;2.17;;
29838;SDS011;18669;53.356;-1.464;2022-07-18T20:08:48;9.05;;;2.00;;
29838;SDS011;18669;53.356;-1.464;2022-07-18T20:11:14;3.75;;;2.40;;
29838;SDS011;18669;53.356;-1.464;2022-07-18T20:13:40;7.03;;;3.38;;
29838;SDS011;18669;53.356;-1.464;2022-07-18T20:16:06;10.60;;;2.13;;
29838;SDS011;18669;53.356;-1.464;2022-07-18T20:18:32;13.65;;;2.67;;
29838;SDS011;18669;53.356;-1.464;2022-07-18T20:20:59;4.90;;;2.15;;
29838;SDS011;18669;53.356;-1.464;2022-07-18T20:23:25;7.07;;;2.75;;
29838;SDS011;18669;53.356;-1.464;2022-07-18T20:25:51;3.83;;;2.30;;
29838;SDS011;18669;53.356;-1.464;2022-07-18T20:28:17;4.40;;;2.55;;
29838;SDS011;18669;53.356;-1.464;2022-07-18T20:30:43;4.43;;;2.50;;
29838;SDS011;18669;53.356;-1.464;2022-07-18T20:33:09;6.85;;;2.78;;
29838;SDS011;18669;53.356;-1.464;2022-07-18T20:35:35;3.15;;;2.42;;
29838;SDS011;18669;53.356;-1.464;2022-07-18T20:38:04;8.20;;;2.70;;
29838;SDS011;18669;53.356;-1.464;2022-07-18T20:40:30;4.25;;;2.72;;
29838;SDS011;18669;53.356;-1.464;2022-07-18T20:42:57;6.03;;;2.78;;
29838;SDS011;18669;53.356;-1.464;2022-07-18T20:45:23;5.88;;;3.30;;
29838;SDS011;18669;53.356;-1.464;2022-07-18T20:47:51;7.28;;;2.97;;
29838;SDS011;18669;53.356;-1.464;2022-07-18T20:50:17;5.88;;;2.72;;
29838;SDS011;18669;53.356;-1.464;2022-07-18T20:52:44;5.47;;;2.90;;
29838;SDS011;18669;53.356;-1.464;2022-07-18T20:55:10;5.68;;;2.85;;
29838;SDS011;18669;53.356;-1.464;2022-07-18T20:57:36;7.10;;;3.13;;
29838;SDS011;18669;53.356;-1.464;2022-07-18T21:00:03;8.20;;;2.70;;
29838;SDS011;18669;53.356;-1.464;2022-07-18T21:02:31;5.22;;;3.08;;
29838;SDS011;18669;53.356;-1.464;2022-07-18T21:04:57;9.25;;;3.55;;
29838;SDS011;18669;53.356;-1.464;2022-07-18T21:07:23;6.72;;;3.42;;
29838;SDS011;18669;53.356;-1.464;2022-07-18T21:09:49;5.75;;;3.50;;
29838;SDS011;18669;53.356;-1.464;2022-07-18T21:12:15;9.65;;;3.45;;
29838;SDS011;18669;53.356;-1.464;2022-07-18T21:14:42;5.65;;;3.45;;
29838;SDS011;18669;53.356;-1.464;2022-07-18T21:17:26;3.88;;;2.90;;
29838;SDS011;18669;53.356;-1.464;2022-07-18T21:19:52;6.85;;;3.08;;
29838;SDS011;18669;53.356;-1.464;2022-07-18T21:22:18;8.23;;;3.20;;
29838;SDS011;18669;53.356;-1.464;2022-07-18T21:24:44;10.73;;;3.65;;
29838;SDS011;18669;53.356;-1.464;2022-07-18T21:27:15;14.07;;;3.80;;
29838;SDS011;18669;53.356;-1.464;2022-07-18T21:29:45;9.63;;;3.67;;
29838;SDS011;18669;53.356;-1.464;2022-07-18T21:32:12;13.38;;;3.80;;
29838;SDS011;18669;53.356;-1.464;2022-07-18T21:34:40;7.25;;;3.92;;
29838;SDS011;18669;53.356;-1.464;2022-07-18T21:37:06;7.63;;;3.88;;
29838;SDS011;18669;53.356;-1.464;2022-07-18T21:39:33;6.47;;;3.80;;
29838;SDS011;18669;53.356;-1.464;2022-07-18T21:42:00;8.88;;;3.30;;
29838;SDS011;18669;53.356;-1.464;2022-07-18T21:44:26;6.75;;;3.70;;
29838;SDS011;18669;53.356;-1.464;2022-07-18T21:46:52;5.05;;;3.40;;
29838;SDS011;18669;53.356;-1.464;2022-07-18T21:49:18;7.55;;;3.50;;
29838;SDS011;18669;53.356;-1.464;2022-07-18T21:51:44;6.65;;;3.58;;
29838;SDS011;18669;53.356;-1.464;2022-07-18T21:54:10;6.68;;;3.75;;
29838;SDS011;18669;53.356;-1.464;2022-07-18T21:56:36;8.00;;;3.50;;
29838;SDS011;18669;53.356;-1.464;2022-07-18T21:59:03;6.70;;;3.28;;
29838;SDS011;18669;53.356;-1.464;2022-07-18T22:01:29;7.50;;;3.75;;